createdAt,value
2019-02-21T00:02:17.897Z,88.47
2019-02-21T00:07:14.384Z,85.00
2019-02-21T00:09:43.068Z,86.28
2019-02-21T00:12:11.709Z,81.87
2019-02-21T00:14:40.272Z,82.05
2019-02-21T00:17:08.857Z,85.15
2019-02-21T00:19:37.498Z,85.97
2019-02-21T00:22:06.154Z,84.85
2019-02-21T00:24:34.834Z,82.82
2019-02-21T00:27:03.424Z,77.78
2019-02-21T00:29:32.052Z,82.70
2019-02-21T00:32:00.702Z,78.70
2019-02-21T00:34:29.339Z,83.67
2019-02-21T00:36:57.923Z,84.30
2019-02-21T00:39:26.608Z,87.02
2019-02-21T00:41:55.243Z,85.87
2019-02-21T00:44:23.832Z,78.35
2019-02-21T00:46:52.530Z,81.45
2019-02-21T00:49:21.176Z,80.45
2019-02-21T00:51:49.763Z,83.90
2019-02-21T00:54:18.475Z,86.35
2019-02-21T00:56:47.059Z,79.37
2019-02-21T00:59:15.778Z,81.92
2019-02-21T01:01:44.479Z,79.40
2019-02-21T01:04:13.127Z,80.32
2019-02-21T01:06:41.773Z,81.35
2019-02-21T01:09:10.464Z,84.67
2019-02-21T01:11:39.118Z,81.45
2019-02-21T01:14:07.771Z,84.77
2019-02-21T01:16:36.484Z,85.30
2019-02-21T01:19:05.133Z,85.07
2019-02-21T01:21:33.779Z,82.30
2019-02-21T01:24:04.940Z,84.37
2019-02-21T01:26:32.805Z,80.42
2019-02-21T01:29:01.464Z,78.90
2019-02-21T01:31:30.167Z,81.95
2019-02-21T01:33:58.824Z,73.33
2019-02-21T01:36:27.479Z,78.07
2019-02-21T01:38:56.160Z,80.95
2019-02-21T01:41:24.813Z,74.32
2019-02-21T01:43:53.461Z,78.07
2019-02-21T01:46:22.162Z,81.15
2019-02-21T01:48:50.828Z,82.10
2019-02-21T01:51:19.480Z,79.10
2019-02-21T01:53:48.175Z,81.78
2019-02-21T01:56:16.827Z,81.45
2019-02-21T01:58:45.474Z,82.53
2019-02-21T02:01:14.167Z,78.28
2019-02-21T02:03:42.821Z,82.92
2019-02-21T02:06:11.468Z,81.15
2019-02-21T02:08:40.183Z,80.12
2019-02-21T02:11:08.835Z,82.40
2019-02-21T02:13:37.488Z,80.70
2019-02-21T02:16:06.190Z,79.22
2019-02-21T02:18:34.843Z,80.38
2019-02-21T02:21:03.477Z,74.15
2019-02-21T02:23:32.186Z,82.27
2019-02-21T02:26:00.829Z,78.60
2019-02-21T02:28:29.415Z,82.05
2019-02-21T02:30:58.119Z,80.60
2019-02-21T02:33:26.759Z,81.80
2019-02-21T02:35:55.410Z,80.67
2019-02-21T02:38:24.111Z,81.37
2019-02-21T02:40:52.763Z,80.62
2019-02-21T02:43:21.504Z,79.87
2019-02-21T02:45:50.219Z,82.65
2019-02-21T02:48:18.879Z,82.97
2019-02-21T02:50:47.526Z,78.47
2019-02-21T02:53:16.155Z,79.67
2019-02-21T02:55:44.800Z,81.02
2019-02-21T02:58:13.446Z,83.47
2019-02-21T03:00:42.159Z,82.00
2019-02-21T03:03:10.798Z,79.50
2019-02-21T03:05:39.488Z,80.10
2019-02-21T03:08:08.158Z,79.15
2019-02-21T03:10:36.805Z,80.00
2019-02-21T03:13:05.441Z,77.00
2019-02-21T03:15:34.135Z,79.07
2019-02-21T03:18:02.730Z,76.40
2019-02-21T03:20:31.387Z,80.67
2019-02-21T03:23:00.112Z,73.92
2019-02-21T03:25:28.780Z,80.35
2019-02-21T03:27:57.441Z,77.12
2019-02-21T03:30:26.174Z,78.80
2019-02-21T03:32:54.888Z,79.00
2019-02-21T03:35:23.548Z,75.85
2019-02-21T03:37:52.229Z,77.10
2019-02-21T03:40:20.888Z,77.90
2019-02-21T03:42:49.534Z,76.72
2019-02-21T03:45:18.246Z,75.67
2019-02-21T03:47:46.881Z,78.62
2019-02-21T03:50:15.460Z,76.15
2019-02-21T03:52:44.151Z,75.90
2019-02-21T03:55:12.822Z,75.05
2019-02-21T03:57:41.459Z,77.05
2019-02-21T04:00:11.915Z,75.60
2019-02-21T04:02:40.614Z,75.52
2019-02-21T04:05:09.276Z,76.22
2019-02-21T04:07:37.970Z,72.17
2019-02-21T04:10:08.718Z,76.65
2019-02-21T04:12:37.379Z,73.97
2019-02-21T04:15:08.682Z,74.53
2019-02-21T04:17:37.344Z,73.12
2019-02-21T04:20:07.197Z,74.47
2019-02-21T04:22:35.904Z,72.72
2019-02-21T04:25:05.751Z,73.45
2019-02-21T04:27:34.240Z,66.92
2019-02-21T04:30:02.962Z,70.97
2019-02-21T04:32:31.549Z,72.20
2019-02-21T04:35:00.327Z,73.02
2019-02-21T04:37:29.033Z,71.30
2019-02-21T04:39:57.686Z,73.52
2019-02-21T04:42:26.341Z,70.03
2019-02-21T04:44:55.144Z,69.20
2019-02-21T04:47:23.802Z,71.75
2019-02-21T04:49:52.464Z,71.15
2019-02-21T04:52:21.098Z,72.80
2019-02-21T04:54:49.724Z,70.42
2019-02-21T04:57:18.379Z,73.52
2019-02-21T04:59:47.080Z,73.42
2019-02-21T05:02:15.754Z,74.40
2019-02-21T05:04:44.408Z,70.75
2019-02-21T05:07:13.012Z,74.45
2019-02-21T05:09:41.676Z,74.47
2019-02-21T05:12:10.317Z,71.72
2019-02-21T05:14:38.988Z,73.00
2019-02-21T05:17:07.640Z,71.47
2019-02-21T05:19:36.295Z,71.67
2019-02-21T05:22:05.005Z,71.50
2019-02-21T05:24:33.645Z,75.32
2019-02-21T05:27:03.852Z,74.45
2019-02-21T05:29:32.587Z,71.17
2019-02-21T05:32:02.794Z,72.55
2019-02-21T05:34:38.826Z,74.47
2019-02-21T05:37:21.295Z,71.90
2019-02-21T05:40:07.562Z,72.70
2019-02-21T05:42:46.606Z,76.37
2019-02-21T05:45:19.652Z,75.97
2019-02-21T05:47:55.605Z,74.32
2019-02-21T05:50:31.307Z,71.95
2019-02-21T05:53:07.292Z,73.37
2019-02-21T05:55:37.558Z,73.20
2019-02-21T05:58:12.610Z,73.52
2019-02-21T06:00:48.051Z,68.20
2019-02-21T06:03:18.268Z,73.67
2019-02-21T06:05:48.499Z,70.95
2019-02-21T06:08:34.009Z,65.52
2019-02-21T06:11:06.991Z,71.72
2019-02-21T06:13:37.267Z,72.70
2019-02-21T06:16:07.472Z,72.10
2019-02-21T06:18:40.559Z,71.85
2019-02-21T06:21:26.874Z,71.53
2019-02-21T06:24:15.380Z,69.58
2019-02-21T06:26:48.594Z,67.87
2019-02-21T06:29:18.863Z,71.02
2019-02-21T06:31:47.518Z,70.30
2019-02-21T06:34:16.190Z,73.25
2019-02-21T06:36:44.824Z,76.25
2019-02-21T06:39:13.389Z,74.95
2019-02-21T06:41:42.792Z,79.22
2019-02-21T06:44:11.866Z,95.00
2019-02-21T06:46:40.523Z,99.50
2019-02-21T06:49:09.171Z,94.13
2019-02-21T06:51:37.796Z,91.40
2019-02-21T06:54:06.425Z,95.40
2019-02-21T06:56:34.941Z,84.97
2019-02-21T06:59:03.664Z,87.40
2019-02-21T07:01:32.223Z,95.05
2019-02-21T07:04:01.912Z,90.67
2019-02-21T07:06:32.181Z,94.30
2019-02-21T07:09:01.149Z,97.33
2019-02-21T07:11:29.828Z,95.25
2019-02-21T07:13:58.559Z,94.25
2019-02-21T07:16:27.114Z,84.50
2019-02-21T07:18:55.762Z,84.60
2019-02-21T07:21:24.485Z,98.00
2019-02-21T07:23:53.126Z,93.42
2019-02-21T07:26:21.774Z,92.30
2019-02-21T07:28:50.458Z,90.25
2019-02-21T07:31:28.200Z,92.10
2019-02-21T07:33:49.415Z,89.42
2019-02-21T07:36:18.119Z,90.75
2019-02-21T07:38:46.769Z,87.92
2019-02-21T07:41:18.453Z,87.40
2019-02-21T07:43:45.771Z,84.05
2019-02-21T07:46:14.356Z,86.85
2019-02-21T07:48:42.999Z,86.10
2019-02-21T07:51:13.467Z,85.00
2019-02-21T07:53:42.025Z,86.15
2019-02-21T07:56:10.667Z,91.67
2019-02-21T07:58:39.688Z,89.15
2019-02-21T08:01:08.437Z,89.47
2019-02-21T08:03:44.407Z,85.60
2019-02-21T08:06:07.442Z,89.62
2019-02-21T08:08:36.186Z,91.72
2019-02-21T08:11:07.036Z,92.57
2019-02-21T08:13:35.184Z,85.07
2019-02-21T08:16:03.848Z,88.58
2019-02-21T08:18:32.507Z,88.40
2019-02-21T08:21:01.131Z,93.65
2019-02-21T08:23:32.307Z,86.42
2019-02-21T08:26:00.080Z,94.50
2019-02-21T08:28:28.868Z,91.90
2019-02-21T08:30:58.254Z,89.50
2019-02-21T08:33:28.740Z,93.37
2019-02-21T08:35:57.981Z,90.57
2019-02-21T08:38:26.987Z,92.80
2019-02-21T08:40:57.200Z,90.83
2019-02-21T08:43:26.004Z,93.55
2019-02-21T08:45:57.385Z,92.30
2019-02-21T08:48:24.866Z,90.15
2019-02-21T08:50:55.022Z,89.77
2019-02-21T08:53:23.694Z,89.60
2019-02-21T08:55:52.267Z,90.17
2019-02-21T08:58:21.995Z,87.97
2019-02-21T09:00:50.638Z,87.75
2019-02-21T09:03:19.297Z,88.92
2019-02-21T09:05:47.914Z,88.67
2019-02-21T09:10:22.831Z,84.50
2019-02-21T09:12:51.525Z,93.70
2019-02-21T09:15:20.144Z,88.12
2019-02-21T09:17:48.796Z,87.60
2019-02-21T09:20:17.515Z,85.03
2019-02-21T09:22:46.090Z,88.15
2019-02-21T09:25:14.851Z,88.95
2019-02-21T09:27:43.564Z,86.65
2019-02-21T09:30:17.066Z,85.15
2019-02-21T09:32:45.740Z,86.78
2019-02-21T09:35:14.410Z,88.92
2019-02-21T09:37:43.054Z,87.70
2019-02-21T09:40:13.706Z,88.47
2019-02-21T09:42:42.401Z,90.47
2019-02-21T09:45:16.252Z,85.20
2019-02-21T09:47:44.884Z,88.70
2019-02-21T09:50:13.570Z,86.50
2019-02-21T09:52:42.225Z,86.70
2019-02-21T09:55:13.482Z,87.00
2019-02-21T09:57:42.111Z,80.00
2019-02-21T10:00:19.830Z,85.07
2019-02-21T10:02:48.479Z,84.60
2019-02-21T10:05:17.126Z,87.40
2019-02-21T10:07:45.712Z,84.70
2019-02-21T10:10:18.815Z,84.83
2019-02-21T10:12:47.443Z,85.75
2019-02-21T10:15:16.790Z,85.87
2019-02-21T10:17:45.490Z,87.37
2019-02-21T10:20:16.526Z,83.80
2019-02-21T10:22:45.180Z,87.60
2019-02-21T10:25:19.590Z,87.50
2019-02-21T10:27:48.199Z,86.08
2019-02-21T10:30:19.073Z,86.32
2019-02-21T10:32:47.708Z,85.12
2019-02-21T10:35:16.352Z,86.55
2019-02-21T10:37:45.015Z,87.70
2019-02-21T10:40:17.491Z,86.50
2019-02-21T10:42:46.164Z,88.15
2019-02-21T10:45:17.357Z,87.95
2019-02-21T10:47:46.066Z,83.20
2019-02-21T10:50:19.230Z,84.77
2019-02-21T10:52:48.283Z,86.78
2019-02-21T10:55:17.572Z,84.03
2019-02-21T10:57:46.165Z,86.92
2019-02-21T11:00:29.747Z,86.45
2019-02-21T11:02:58.326Z,85.90
2019-02-21T11:05:26.920Z,82.95
2019-02-21T11:07:55.633Z,82.67
2019-02-21T11:10:27.159Z,84.20
2019-02-21T11:12:55.823Z,84.87
2019-02-21T11:15:25.812Z,82.82
2019-02-21T11:17:54.448Z,80.92
2019-02-21T11:20:23.097Z,79.92
2019-02-21T11:22:51.801Z,80.97
2019-02-21T11:25:20.390Z,81.45
2019-02-21T11:27:48.985Z,84.52
2019-02-21T11:30:21.591Z,82.42
2019-02-21T11:32:50.237Z,79.12
2019-02-21T11:35:18.886Z,85.47
2019-02-21T11:37:47.770Z,86.22
2019-02-21T11:40:17.557Z,87.02
2019-02-21T11:42:46.213Z,89.77
2019-02-21T11:45:17.082Z,89.77
2019-02-21T11:47:45.741Z,87.10
2019-02-21T11:50:18.441Z,90.62
2019-02-21T11:52:47.134Z,88.58
2019-02-21T11:55:21.645Z,89.07
2019-02-21T11:57:50.363Z,89.67
2019-02-21T12:00:29.716Z,91.12
2019-02-21T12:02:58.270Z,86.00
2019-02-21T12:05:33.569Z,92.35
2019-02-21T12:07:57.144Z,90.57
2019-02-21T12:10:25.839Z,92.53
2019-02-21T12:12:54.491Z,88.58
2019-02-21T12:15:23.141Z,92.67
2019-02-21T12:17:51.789Z,92.08
2019-02-21T12:20:20.844Z,93.17
2019-02-21T12:22:49.494Z,91.55
2019-02-21T12:25:20.303Z,91.55
2019-02-21T12:27:48.889Z,91.12
2019-02-21T12:30:18.835Z,90.40
2019-02-21T12:32:47.539Z,85.32
2019-02-21T12:35:16.118Z,92.78
2019-02-21T12:37:44.781Z,93.75
2019-02-21T12:40:22.242Z,93.17
2019-02-21T12:42:50.814Z,90.57
2019-02-21T12:45:24.466Z,89.60
2019-02-21T12:47:54.071Z,92.37
2019-02-21T12:50:23.066Z,90.42
2019-02-21T12:52:51.660Z,92.72
2019-02-21T12:55:27.988Z,92.92
2019-02-21T12:57:51.957Z,89.45
2019-02-21T13:00:23.726Z,91.75
2019-02-21T13:02:52.416Z,85.75
2019-02-21T13:05:21.076Z,89.45
2019-02-21T13:07:49.742Z,88.30
2019-02-21T13:10:23.361Z,84.35
2019-02-21T13:12:52.020Z,82.57
2019-02-21T13:15:20.677Z,73.07
2019-02-21T13:17:51.110Z,82.42
2019-02-21T13:20:19.539Z,74.45
2019-02-21T13:22:48.200Z,75.90
2019-02-21T13:25:18.601Z,82.45
2019-02-21T13:27:47.263Z,81.65
2019-02-21T13:30:17.116Z,83.95
2019-02-21T13:32:45.743Z,80.80
2019-02-21T13:35:14.398Z,74.12
2019-02-21T13:37:43.043Z,77.80
2019-02-21T13:40:16.239Z,75.30
2019-02-21T13:42:44.932Z,73.22
2019-02-21T13:45:17.163Z,74.50
2019-02-21T13:47:45.173Z,63.65
2019-02-21T13:50:16.474Z,58.48
2019-02-21T13:52:45.058Z,60.43
2019-02-21T13:55:13.770Z,57.95
2019-02-21T13:57:42.362Z,58.48
2019-02-21T14:00:19.266Z,60.52
2019-02-21T14:02:47.832Z,62.83
2019-02-21T14:05:16.474Z,68.57
2019-02-21T14:07:45.185Z,67.27
2019-02-21T14:10:14.531Z,59.80
2019-02-21T14:12:43.203Z,59.25
2019-02-21T14:15:17.914Z,59.63
2019-02-21T14:17:46.827Z,60.33
2019-02-21T14:20:15.646Z,59.73
2019-02-21T14:22:44.355Z,60.95
2019-02-21T14:25:13.006Z,62.98
2019-02-21T14:27:43.240Z,63.20
2019-02-21T14:30:19.374Z,58.73
2019-02-21T14:32:47.954Z,60.73
2019-02-21T14:35:16.619Z,62.80
2019-02-21T14:37:45.297Z,61.50
2019-02-21T14:40:15.651Z,59.50
2019-02-21T14:42:44.303Z,60.92
2019-02-21T14:45:24.137Z,60.95
2019-02-21T14:47:52.786Z,61.25
2019-02-21T14:50:21.370Z,58.17
2019-02-21T14:52:50.073Z,55.25
2019-02-21T14:55:18.718Z,57.10
2019-02-21T14:57:47.382Z,57.65
2019-02-21T15:00:21.797Z,56.37
2019-02-21T15:02:50.444Z,55.80
2019-02-21T15:05:19.490Z,57.65
2019-02-21T15:07:48.334Z,56.63
2019-02-21T15:10:16.941Z,59.88
2019-02-21T15:12:45.605Z,57.30
2019-02-21T15:15:22.799Z,59.30
2019-02-21T15:17:51.439Z,59.27
2019-02-21T15:20:20.097Z,54.88
2019-02-21T15:22:48.792Z,53.40
2019-02-21T15:25:17.461Z,56.30
2019-02-21T15:27:46.137Z,54.70
2019-02-21T15:30:21.942Z,54.50
2019-02-21T15:32:50.514Z,54.83
2019-02-21T15:35:19.737Z,55.60
2019-02-21T15:37:48.679Z,53.83
2019-02-21T15:40:17.244Z,52.88
2019-02-21T15:42:45.899Z,54.15
2019-02-21T15:45:22.897Z,54.60
2019-02-21T15:47:47.891Z,53.65
2019-02-21T15:50:19.557Z,53.50
2019-02-21T15:52:47.446Z,53.13
2019-02-21T15:55:20.759Z,51.53
2019-02-21T15:57:49.407Z,52.62
2019-02-21T16:00:22.755Z,52.03
2019-02-21T16:02:51.406Z,51.53
2019-02-21T16:05:20.071Z,50.23
2019-02-21T16:07:48.771Z,46.80
2019-02-21T16:10:24.901Z,46.95
2019-02-21T16:12:53.578Z,51.55
2019-02-21T16:15:22.331Z,46.88
2019-02-21T16:17:50.854Z,49.03
2019-02-21T16:20:20.899Z,42.85
2019-02-21T16:22:49.534Z,44.20
2019-02-21T16:25:29.314Z,44.13
2019-02-21T16:27:57.970Z,43.58
2019-02-21T16:30:26.608Z,42.27
2019-02-21T16:32:55.289Z,42.38
2019-02-21T16:35:23.878Z,36.35
2019-02-21T16:37:52.481Z,36.80
2019-02-21T16:40:21.173Z,39.95
2019-02-21T16:42:49.818Z,44.18
2019-02-21T16:45:19.966Z,46.30
2019-02-21T16:47:48.677Z,46.70
2019-02-21T16:50:28.829Z,47.65
2019-02-21T16:52:47.536Z,46.42
2019-02-21T16:55:21.824Z,47.13
2019-02-21T16:57:50.483Z,44.70
2019-02-21T17:00:20.341Z,47.05
2019-02-21T17:02:49.050Z,47.55
2019-02-21T17:05:17.628Z,49.63
2019-02-21T17:07:46.269Z,47.70
2019-02-21T17:10:16.390Z,49.05
2019-02-21T17:12:45.035Z,50.55
2019-02-21T17:15:14.890Z,48.50
2019-02-21T17:17:43.571Z,51.37
2019-02-21T17:20:14.436Z,53.45
2019-02-21T17:22:43.082Z,49.50
2019-02-21T17:25:13.986Z,53.87
2019-02-21T17:27:42.645Z,56.55
2019-02-21T17:30:18.398Z,57.30
2019-02-21T17:32:46.995Z,55.50
2019-02-21T17:35:15.658Z,53.73
2019-02-21T17:37:44.344Z,55.25
2019-02-21T17:40:23.539Z,55.70
2019-02-21T17:42:52.252Z,57.83
2019-02-21T17:45:20.893Z,59.23
2019-02-21T17:47:49.552Z,62.73
2019-02-21T17:50:19.255Z,62.05
2019-02-21T17:52:47.918Z,60.92
2019-02-21T17:55:17.280Z,62.98
2019-02-21T17:57:45.990Z,63.08
2019-02-21T18:00:28.107Z,63.00
2019-02-21T18:02:56.881Z,64.40
2019-02-21T18:05:25.515Z,63.83
2019-02-21T18:07:54.176Z,66.53
2019-02-21T18:10:22.874Z,65.62
2019-02-21T18:12:51.524Z,65.03
2019-02-21T18:15:20.216Z,64.07
2019-02-21T18:17:49.014Z,66.15
2019-02-21T18:20:17.668Z,67.12
2019-02-21T18:22:46.304Z,67.32
2019-02-21T18:25:18.134Z,66.28
2019-02-21T18:27:46.882Z,67.30
2019-02-21T18:30:18.208Z,64.90
2019-02-21T18:32:46.928Z,67.75
2019-02-21T18:35:15.578Z,68.72
2019-02-21T18:37:47.605Z,67.10
2019-02-21T18:40:34.065Z,68.95
2019-02-21T18:43:05.672Z,69.77
2019-02-21T18:45:34.408Z,69.97
2019-02-21T18:48:03.106Z,67.60
2019-02-21T18:50:38.283Z,68.83
2019-02-21T18:53:02.041Z,67.30
2019-02-21T18:55:30.725Z,67.35
2019-02-21T18:58:00.951Z,67.08
2019-02-21T19:00:29.692Z,68.33
2019-02-21T19:02:58.408Z,66.95
2019-02-21T19:05:35.253Z,64.30
2019-02-21T19:08:04.751Z,65.32
2019-02-21T19:10:27.800Z,65.75
2019-02-21T19:12:56.462Z,63.78
2019-02-21T19:15:26.664Z,64.25
2019-02-21T19:17:55.463Z,66.33
2019-02-21T19:20:24.222Z,65.12
2019-02-21T19:22:52.864Z,64.95
2019-02-21T19:25:21.577Z,69.67
2019-02-21T19:27:50.220Z,64.70
2019-02-21T19:30:28.136Z,67.67
2019-02-21T19:32:56.868Z,71.75
2019-02-21T19:35:27.088Z,69.90
2019-02-21T19:37:55.782Z,66.67
2019-02-21T19:40:24.531Z,65.25
2019-02-21T19:42:55.727Z,67.47
2019-02-21T19:45:24.489Z,66.10
2019-02-21T19:47:53.137Z,65.60
2019-02-21T19:50:21.782Z,65.20
2019-02-21T19:52:50.476Z,66.72
2019-02-21T19:55:19.119Z,64.22
2019-02-21T19:57:47.872Z,64.67
2019-02-21T20:00:21.000Z,64.62
2019-02-21T20:02:49.660Z,64.17
2019-02-21T20:05:18.307Z,63.68
2019-02-21T20:07:47.009Z,65.15
2019-02-21T20:10:15.650Z,63.60
2019-02-21T20:12:44.288Z,64.40
2019-02-21T20:15:13.004Z,64.60
2019-02-21T20:17:41.669Z,63.85
2019-02-21T20:20:22.165Z,62.17
2019-02-21T20:22:50.815Z,62.80
2019-02-21T20:25:19.465Z,65.28
2019-02-21T20:27:48.162Z,63.35
2019-02-21T20:30:18.412Z,66.20
2019-02-21T20:32:49.873Z,63.60
2019-02-21T20:35:18.572Z,62.95
2019-02-21T20:37:47.228Z,64.72
2019-02-21T20:40:15.974Z,65.97
2019-02-21T20:42:44.677Z,66.75
2019-02-21T20:45:14.821Z,64.95
2019-02-21T20:47:43.461Z,62.40
2019-02-21T20:50:12.970Z,65.40
2019-02-21T20:52:41.614Z,63.65
2019-02-21T20:55:11.392Z,62.93
2019-02-21T20:57:40.081Z,62.65
2019-02-21T21:00:19.195Z,61.65
2019-02-21T21:02:48.031Z,62.08
2019-02-21T21:05:16.899Z,60.88
2019-02-21T21:07:45.542Z,63.40
2019-02-21T21:10:15.856Z,60.25
2019-02-21T21:12:44.486Z,59.15
2019-02-21T21:15:14.640Z,58.87
2019-02-21T21:17:43.373Z,58.33
2019-02-21T21:20:17.036Z,58.38
2019-02-21T21:25:17.081Z,58.08
2019-02-21T21:27:45.736Z,58.45
2019-02-21T21:30:15.972Z,58.52
2019-02-21T21:32:44.671Z,58.45
2019-02-21T21:35:13.317Z,59.98
2019-02-21T21:37:41.971Z,58.85
2019-02-21T21:40:13.175Z,59.88
2019-02-21T21:42:41.826Z,58.73
2019-02-21T21:45:13.276Z,58.83
2019-02-21T21:47:42.027Z,58.83
2019-02-21T21:50:16.210Z,59.53
2019-02-21T21:52:44.898Z,60.70
2019-02-21T21:55:13.596Z,58.98
2019-02-21T21:57:42.272Z,59.65
2019-02-21T22:00:13.381Z,60.10
2019-02-21T22:02:42.074Z,59.48
2019-02-21T22:05:10.727Z,58.95
2019-02-21T22:07:39.374Z,57.90
2019-02-21T22:10:10.633Z,58.17
2019-02-21T22:12:39.292Z,56.47
2019-02-21T22:15:19.346Z,58.10
2019-02-21T22:17:47.935Z,58.23
2019-02-21T22:20:16.602Z,60.33
2019-02-21T22:22:45.297Z,61.28
2019-02-21T22:25:14.425Z,60.12
2019-02-21T22:27:43.074Z,63.08
2019-02-21T22:30:17.620Z,62.85
2019-02-21T22:32:46.272Z,63.38
2019-02-21T22:35:14.906Z,61.23
2019-02-21T22:37:43.611Z,61.55
2019-02-21T22:40:15.107Z,61.25
2019-02-21T22:42:43.748Z,60.95
2019-02-21T22:45:12.491Z,60.35
2019-02-21T22:47:41.138Z,62.50
2019-02-21T22:50:15.685Z,61.18
2019-02-21T22:52:44.369Z,61.00
2019-02-21T22:55:13.008Z,61.35
2019-02-21T22:57:41.651Z,66.12
2019-02-21T23:00:48.131Z,65.80
2019-02-21T23:03:17.604Z,61.92
2019-02-21T23:06:01.815Z,62.90
2019-02-21T23:08:45.274Z,62.67
2019-02-21T23:11:13.977Z,62.85
2019-02-21T23:13:42.611Z,63.52
2019-02-21T23:16:11.289Z,62.85
2019-02-21T23:18:40.000Z,63.48
2019-02-21T23:21:08.686Z,63.15
2019-02-21T23:23:37.719Z,62.08
2019-02-21T23:26:06.440Z,61.95
2019-02-21T23:28:35.024Z,62.90
2019-02-21T23:31:03.668Z,61.55
2019-02-21T23:33:33.896Z,62.93
2019-02-21T23:36:02.547Z,63.30
2019-02-21T23:38:31.194Z,63.17
2019-02-21T23:40:59.903Z,63.15
2019-02-21T23:43:28.560Z,63.38
2019-02-21T23:45:57.211Z,62.78
2019-02-21T23:48:25.906Z,65.52
2019-02-21T23:50:54.566Z,64.65
2019-02-21T23:53:23.199Z,61.88
2019-02-21T23:55:51.902Z,63.55
2019-02-21T23:58:20.554Z,62.70
